Time;durP1;ratioP1;P1;durP2;ratioP2;P2;SDS_P1;SDS_P2;PMS_P1;PMS_P2;Temp;Humidity;BMP_temperature;BMP_pressure;BME280_temperature;BME280_humidity;BME280_pressure;Samples;Min_cycle;Max_cycle;Signal;HPM_P1;HPM_P2
2021/11/21 00:02:23;;;;;;;31.27;17.65;;;;;;;3.91;100.00;100299.63;6298609;28;20071;-73
2021/11/21 00:05:25;;;;;;;30.17;17.25;;;;;;;3.87;100.00;100298.88;6298374;28;20128;-73
2021/11/21 00:08:25;;;;;;;27.53;16.93;;;;;;;3.78;100.00;100284.47;6299809;28;20045;-73
2021/11/21 00:11:26;;;;;;;26.52;15.52;;;;;;;3.95;100.00;100296.06;6299854;28;20048;-73
2021/11/21 00:14:27;;;;;;;29.10;17.17;;;;;;;3.93;100.00;100290.09;6299515;28;20049;-72
2021/11/21 00:17:28;;;;;;;29.80;17.88;;;;;;;3.93;100.00;100290.97;6299870;28;20044;-72
2021/11/21 00:20:29;;;;;;;31.85;16.58;;;;;;;4.01;100.00;100285.53;6281782;28;20071;-72
2021/11/21 00:23:29;;;;;;;29.85;15.32;;;;;;;3.98;100.00;100286.47;6299061;28;20064;-73
2021/11/21 00:26:30;;;;;;;38.58;17.25;;;;;;;3.94;100.00;100287.47;6281276;28;20464;-71
2021/11/21 00:29:31;;;;;;;34.25;17.48;;;;;;;4.01;100.00;100275.22;6299190;28;20051;-71
2021/11/21 00:32:32;;;;;;;35.15;17.95;;;;;;;4.06;100.00;100275.06;6299286;28;20049;-71
2021/11/21 00:35:33;;;;;;;30.52;17.10;;;;;;;4.10;100.00;100274.06;6281187;28;20396;-71
2021/11/21 00:38:34;;;;;;;33.03;17.13;;;;;;;4.14;100.00;100284.28;6297872;28;20048;-72
2021/11/21 00:41:34;;;;;;;28.58;16.77;;;;;;;4.17;100.00;100279.00;6298975;28;20083;-73
2021/11/21 00:44:36;;;;;;;27.75;16.73;;;;;;;4.16;100.00;100274.75;6297618;28;20044;-72
2021/11/21 00:47:38;;;;;;;30.35;16.90;;;;;;;4.26;100.00;100277.88;6264543;28;20075;-71
2021/11/21 00:50:38;;;;;;;28.08;16.00;;;;;;;4.35;100.00;100275.03;6299039;28;20090;-71
2021/11/21 00:53:42;;;;;;;27.85;15.55;;;;;;;4.34;100.00;100275.06;6297100;28;20052;-73
2021/11/21 00:56:43;;;;;;;27.60;16.23;;;;;;;4.39;100.00;100278.34;6297089;28;20048;-73
2021/11/21 00:59:44;;;;;;;25.83;14.95;;;;;;;4.46;100.00;100272.09;6296649;28;20107;-73
2021/11/21 01:02:45;;;;;;;31.30;14.70;;;;;;;4.43;100.00;100269.63;6298314;28;20044;-73
2021/11/21 01:05:47;;;;;;;27.35;15.38;;;;;;;4.38;100.00;100267.16;6296758;28;20032;-73
2021/11/21 01:08:48;;;;;;;24.83;14.85;;;;;;;4.49;100.00;100261.66;6297264;28;20048;-73
2021/11/21 01:11:49;;;;;;;28.85;15.70;;;;;;;4.52;100.00;100258.97;6298485;28;20144;-73
2021/11/21 01:14:50;;;;;;;28.38;15.77;;;;;;;4.63;100.00;100256.03;6298046;28;20041;-73
2021/11/21 01:17:53;;;;;;;28.33;14.75;;;;;;;4.72;100.00;100254.91;6296908;28;20488;-73
2021/11/21 01:20:53;;;;;;;25.88;15.10;;;;;;;4.68;100.00;100245.56;6297898;28;20040;-73
2021/11/21 01:23:55;;;;;;;23.00;13.95;;;;;;;4.68;100.00;100242.97;6297570;28;20060;-73
2021/11/21 01:26:56;;;;;;;26.33;14.50;;;;;;;4.60;100.00;100235.47;6296545;28;20032;-73
2021/11/21 01:29:57;;;;;;;23.92;14.18;;;;;;;4.59;100.00;100231.16;6280007;28;20068;-71
2021/11/21 01:32:59;;;;;;;28.33;14.43;;;;;;;4.57;100.00;100220.91;6297589;28;20067;-71
2021/11/21 01:36:00;;;;;;;24.35;13.40;;;;;;;4.53;100.00;100213.28;6295707;28;20125;-73
2021/11/21 01:39:02;;;;;;;23.20;13.57;;;;;;;4.52;100.00;100209.88;6296491;28;20052;-72
2021/11/21 01:42:03;;;;;;;25.90;14.37;;;;;;;4.49;100.00;100216.88;6297586;28;20047;-71
2021/11/21 01:45:05;;;;;;;23.92;13.68;;;;;;;4.47;100.00;100206.59;6296675;28;20036;-72
2021/11/21 01:48:06;;;;;;;24.85;14.32;;;;;;;4.58;100.00;100204.50;6297121;28;20472;-72
2021/11/21 01:51:09;;;;;;;24.83;13.88;;;;;;;4.60;100.00;100201.88;6296327;28;20075;-71
2021/11/21 01:54:11;;;;;;;27.00;15.15;;;;;;;4.64;100.00;100200.88;6279351;28;20048;-71
2021/11/21 01:57:12;;;;;;;24.77;15.05;;;;;;;4.60;100.00;100205.28;6279537;28;20055;-71
2021/11/21 02:00:14;;;;;;;24.88;13.73;;;;;;;4.69;100.00;100201.53;6297274;28;20128;-72
2021/11/21 02:03:17;;;;;;;26.00;14.63;;;;;;;4.70;100.00;100187.72;6297215;28;20129;-72
2021/11/21 02:06:18;;;;;;;24.25;14.38;;;;;;;4.81;100.00;100201.09;6295763;28;20044;-73
2021/11/21 02:09:19;;;;;;;23.50;14.05;;;;;;;4.78;100.00;100192.66;6297163;28;20055;-73
2021/11/21 02:12:20;;;;;;;24.60;13.95;;;;;;;4.81;100.00;100187.34;6295868;28;20040;-71
2021/11/21 02:15:24;;;;;;;23.63;13.70;;;;;;;4.76;100.00;100191.84;6262473;28;20045;-72
2021/11/21 02:18:25;;;;;;;24.73;14.65;;;;;;;4.80;100.00;100177.91;6296723;28;20397;-72
2021/11/21 02:21:26;;;;;;;25.35;13.52;;;;;;;4.83;100.00;100178.63;6296413;28;20036;-72
2021/11/21 02:24:27;;;;;;;23.35;13.55;;;;;;;4.82;100.00;100169.19;6295975;28;20052;-72
2021/11/21 02:27:30;;;;;;;25.30;14.00;;;;;;;4.87;100.00;100168.19;6278919;28;20123;-73
2021/11/21 02:30:31;;;;;;;24.00;14.25;;;;;;;4.87;100.00;100163.88;6295604;28;20041;-73
2021/11/21 02:33:32;;;;;;;31.60;16.35;;;;;;;4.89;100.00;100163.81;6278801;28;20053;-73
2021/11/21 02:36:33;;;;;;;31.48;15.77;;;;;;;4.93;100.00;100173.16;6296892;28;20135;-72
2021/11/21 02:39:39;;;;;;;28.58;17.73;;;;;;;4.90;100.00;100160.31;6296701;28;20119;-73
2021/11/21 02:42:40;;;;;;;26.60;15.57;;;;;;;4.93;100.00;100158.47;6296711;28;20048;-73
2021/11/21 02:45:41;;;;;;;28.98;15.18;;;;;;;4.96;100.00;100152.34;6296353;28;20098;-73
2021/11/21 02:48:42;;;;;;;26.58;15.98;;;;;;;4.93;100.00;100149.88;6298724;28;20048;-73
2021/11/21 02:51:43;;;;;;;27.90;14.43;;;;;;;4.90;100.00;100145.66;6301583;28;20102;-73
2021/11/21 02:54:57;;;;;;;28.58;15.98;;;;;;;4.98;100.00;100145.38;6301337;28;20277;-73
2021/11/21 02:58:00;;;;;;;26.52;15.18;;;;;;;4.97;100.00;100135.94;6301535;28;20047;-73
2021/11/21 03:01:20;;;;;;;;;;;;;;;4.89;100.00;100141.38;6301735;28;20044;-71
2021/11/21 03:04:23;;;;;;;28.10;15.15;;;;;;;4.85;100.00;100134.63;6300999;28;19925;-72
2021/11/21 03:07:24;;;;;;;26.40;14.93;;;;;;;4.79;100.00;100132.28;6301300;28;20098;-74
2021/11/21 03:10:25;;;;;;;33.67;16.38;;;;;;;4.70;100.00;100122.28;6283288;28;20048;-73
2021/11/21 03:13:26;;;;;;;30.02;15.15;;;;;;;4.65;100.00;100112.06;6301070;28;20127;-73
2021/11/21 03:16:27;;;;;;;37.08;17.02;;;;;;;4.62;100.00;100113.03;6299755;28;20395;-73
2021/11/21 03:19:28;;;;;;;28.38;15.77;;;;;;;4.66;100.00;100116.38;6299591;28;20381;-73
2021/11/21 03:22:28;;;;;;;35.97;16.00;;;;;;;4.60;100.00;100125.16;6299791;28;20041;-73
2021/11/21 03:25:30;;;;;;;45.22;16.63;;;;;;;4.57;100.00;100104.63;6300265;28;20140;-73
2021/11/21 03:28:31;;;;;;;64.63;17.63;;;;;;;4.51;100.00;100120.34;6300811;28;20045;-73
2021/11/21 03:31:33;;;;;;;42.42;17.30;;;;;;;4.56;100.00;100115.00;6266395;28;20079;-73
2021/11/21 03:34:37;;;;;;;56.28;16.38;;;;;;;4.39;100.00;100118.19;6300642;28;20090;-73
2021/11/21 03:37:39;;;;;;;94.18;16.98;;;;;;;4.42;100.00;100112.88;6300569;28;20464;-73
2021/11/21 03:40:40;;;;;;;74.72;17.83;;;;;;;4.39;100.00;100111.25;6300406;28;20434;-74
2021/11/21 03:43:40;;;;;;;61.13;18.17;;;;;;;4.39;100.00;100119.00;6299281;28;20052;-71
2021/11/21 03:46:41;;;;;;;94.32;17.17;;;;;;;4.52;100.00;100109.09;6299833;28;20636;-71
2021/11/21 03:49:42;;;;;;;110.80;16.58;;;;;;;4.36;100.00;100113.94;6298418;28;20140;-71
2021/11/21 03:52:44;;;;;;;126.15;17.63;;;;;;;4.38;100.00;100108.72;6298701;28;20048;-72
2021/11/21 03:55:46;;;;;;;119.38;17.77;;;;;;;4.40;100.00;100105.19;6300045;28;20097;-73
2021/11/21 03:58:47;;;;;;;82.82;15.00;;;;;;;4.38;100.00;100101.81;6297811;28;20408;-73
2021/11/21 04:01:48;;;;;;;99.15;15.55;;;;;;;4.10;100.00;100101.06;6299970;28;20052;-71
2021/11/21 04:04:49;;;;;;;86.82;15.27;;;;;;;4.06;100.00;100091.72;6298618;28;20045;-73
2021/11/21 04:07:50;;;;;;;104.47;15.40;;;;;;;4.00;100.00;100103.97;6299545;28;20507;-73
2021/11/21 04:10:51;;;;;;;218.65;17.85;;;;;;;3.87;100.00;100092.38;6298732;28;20083;-72
2021/11/21 04:13:51;;;;;;;89.60;13.48;;;;;;;3.95;100.00;100087.75;6299594;28;20044;-72
2021/11/21 04:16:52;;;;;;;123.93;16.98;;;;;;;3.88;100.00;100088.03;6299463;28;20075;-73
2021/11/21 04:19:53;;;;;;;165.38;16.20;;;;;;;3.79;100.00;100092.59;6281733;28;20045;-73
2021/11/21 04:22:54;;;;;;;66.32;14.32;;;;;;;3.90;100.00;100092.25;6299441;28;20047;-73
2021/11/21 04:25:56;;;;;;;138.77;16.05;;;;;;;3.86;100.00;100082.91;6298897;28;20095;-72
2021/11/21 04:28:56;;;;;;;136.02;14.23;;;;;;;3.84;100.00;100079.53;6299603;28;20845;-73
2021/11/21 04:31:57;;;;;;;97.90;14.52;;;;;;;3.79;100.00;100071.97;6298301;28;20084;-72
2021/11/21 04:34:58;;;;;;;109.75;15.75;;;;;;;3.86;100.00;100064.84;6297986;28;20105;-71
2021/11/21 04:37:59;;;;;;;68.28;15.13;;;;;;;3.82;100.00;100063.25;6299073;28;20045;-71
2021/11/21 04:41:00;;;;;;;185.85;14.85;;;;;;;3.74;100.00;100068.66;6297888;28;20049;-71
2021/11/21 04:44:02;;;;;;;79.07;15.25;;;;;;;3.88;100.00;100057.91;6298941;28;20477;-71
2021/11/21 04:47:03;;;;;;;;;;;;;;;3.91;100.00;100065.56;6281278;28;20071;-72
2021/11/21 04:50:06;;;;;;;97.93;16.23;;;;;;;3.86;100.00;100058.84;6297446;28;19924;-70
2021/11/21 04:53:07;;;;;;;114.85;14.55;;;;;;;3.92;100.00;100062.06;6297895;28;20464;-71
2021/11/21 04:56:08;;;;;;;123.93;16.08;;;;;;;4.00;100.00;100064.41;6296761;28;20097;-72
2021/11/21 04:59:09;;;;;;;98.50;14.30;;;;;;;3.82;100.00;100063.25;6281006;28;20044;-72
2021/11/21 05:02:10;;;;;;;123.90;15.55;;;;;;;3.74;100.00;100066.09;6297217;28;20041;-72
2021/11/21 05:05:11;;;;;;;167.55;17.17;;;;;;;3.73;100.00;100061.00;6297321;28;20039;-72
2021/11/21 05:08:12;;;;;;;88.00;15.02;;;;;;;3.91;100.00;100050.06;6296876;28;20400;-72
2021/11/21 05:11:12;;;;;;;71.50;14.68;;;;;;;3.82;100.00;100043.44;6297097;28;20044;-73
2021/11/21 05:14:16;;;;;;;133.18;15.50;;;;;;;3.80;100.00;100036.66;6280402;28;20132;-72
2021/11/21 05:17:17;;;;;;;101.97;14.95;;;;;;;3.81;100.00;100044.38;6280510;28;20048;-72
2021/11/21 05:20:19;;;;;;;109.55;14.98;;;;;;;3.68;100.00;100049.97;6297919;28;20044;-72
2021/11/21 05:23:20;;;;;;;78.07;16.10;;;;;;;3.74;100.00;100034.28;6298084;28;20074;-72
2021/11/21 05:26:23;;;;;;;119.95;15.90;;;;;;;3.78;100.00;100047.03;6296357;28;20416;-72
2021/11/21 05:29:24;;;;;;;73.20;16.33;;;;;;;3.76;100.00;100050.56;6296787;28;20063;-72
2021/11/21 05:32:25;;;;;;;93.38;14.50;;;;;;;3.69;100.00;100042.19;6263603;28;20098;-70
2021/11/21 05:35:26;;;;;;;81.68;15.02;;;;;;;3.66;100.00;100049.19;6279984;28;20048;-70
2021/11/21 05:38:26;;;;;;;146.40;14.25;;;;;;;3.48;100.00;100046.31;6296333;28;20123;-72
2021/11/21 05:41:27;;;;;;;117.30;16.17;;;;;;;3.50;100.00;100048.81;6279749;28;20047;-70
2021/11/21 05:44:28;;;;;;;101.22;14.48;;;;;;;3.47;100.00;100039.44;6296540;28;20044;-72
2021/11/21 05:47:29;;;;;;;104.30;14.02;;;;;;;3.45;100.00;100045.56;6262781;28;20384;-72
2021/11/21 05:50:30;;;;;;;90.05;15.27;;;;;;;3.52;100.00;100040.16;6297318;28;20473;-72
2021/11/21 05:53:31;;;;;;;75.80;13.98;;;;;;;3.62;100.00;100040.69;6297073;28;20411;-70
2021/11/21 05:56:31;;;;;;;90.93;15.07;;;;;;;3.62;100.00;100035.53;6296597;28;20040;-70
2021/11/21 05:59:35;;;;;;;64.05;14.70;;;;;;;3.69;100.00;100034.44;6295302;28;20056;-72
2021/11/21 06:02:36;;;;;;;71.35;14.30;;;;;;;3.79;100.00;100030.66;6296013;28;20036;-70
2021/11/21 06:05:37;;;;;;;134.13;12.75;;;;;;;3.62;100.00;100030.34;6295857;28;20047;-72
2021/11/21 06:08:38;;;;;;;123.72;13.73;;;;;;;3.55;100.00;100024.56;6297020;28;20048;-71
2021/11/21 06:11:39;;;;;;;158.82;14.73;;;;;;;3.65;100.00;100037.19;6295972;28;20040;-71
2021/11/21 06:14:39;;;;;;;141.52;14.43;;;;;;;3.60;100.00;100030.44;6301459;28;20056;-71
2021/11/21 06:17:43;;;;;;;88.05;14.65;;;;;;;3.72;100.00;100029.16;6321220;28;20119;-70
2021/11/21 06:20:44;;;;;;;59.08;12.70;;;;;;;3.63;100.00;100034.66;6300476;28;20040;-72
2021/11/21 06:23:45;;;;;;;62.80;14.88;;;;;;;3.64;100.00;100026.00;6294446;28;20040;-71
2021/11/21 06:26:45;;;;;;;74.13;12.93;;;;;;;3.88;100.00;100028.66;6294564;28;20052;-70
2021/11/21 06:29:46;;;;;;;97.30;14.50;;;;;;;3.74;100.00;100027.38;6278161;28;20044;-72
2021/11/21 06:32:47;;;;;;;93.55;12.20;;;;;;;3.59;100.00;100041.63;6294767;28;20040;-72
2021/11/21 06:35:50;;;;;;;110.50;14.50;;;;;;;3.59;100.00;100035.63;6295957;28;20080;-72
2021/11/21 06:38:51;;;;;;;117.15;17.00;;;;;;;3.45;100.00;100027.50;6294679;28;20036;-72
2021/11/21 06:41:52;;;;;;;79.38;17.08;;;;;;;3.55;100.00;100016.81;6296064;28;20063;-70
2021/11/21 06:44:52;;;;;;;118.10;17.27;;;;;;;3.68;100.00;100019.84;6311741;28;20040;-70
2021/11/21 06:47:53;;;;;;;122.05;16.33;;;;;;;3.60;100.00;100022.69;6319463;28;20044;-70
2021/11/21 06:50:54;;;;;;;84.90;15.82;;;;;;;3.50;100.00;100020.44;6319753;28;20048;-70
2021/11/21 06:53:56;;;;;;;92.60;17.38;;;;;;;3.66;100.00;100016.47;6320631;28;20158;-70
2021/11/21 06:56:57;;;;;;;;;;;;;;;3.56;100.00;100025.41;6321159;28;20040;-71
2021/11/21 06:59:58;;;;;;;109.50;15.07;;;;;;;3.64;100.00;100015.66;6319586;28;19920;-72
2021/11/21 07:02:58;;;;;;;75.50;14.40;;;;;;;3.63;100.00;100022.56;6302657;28;20114;-72
2021/11/21 07:05:59;;;;;;;115.60;15.68;;;;;;;3.70;100.00;100014.63;6320482;28;20044;-72
2021/11/21 07:09:02;;;;;;;72.40;12.57;;;;;;;3.67;100.00;100019.91;6320441;28;20040;-72
2021/11/21 07:12:04;;;;;;;115.28;16.73;;;;;;;3.84;100.00;100022.75;6320572;28;20462;-73
2021/11/21 07:15:05;;;;;;;106.13;16.25;;;;;;;3.83;100.00;100027.09;6319219;28;20359;-72
2021/11/21 07:18:06;;;;;;;133.15;15.65;;;;;;;3.86;100.00;100026.13;6319206;28;20040;-72
2021/11/21 07:21:07;;;;;;;143.98;16.95;;;;;;;3.87;100.00;100026.97;6320273;28;20047;-72
2021/11/21 07:24:09;;;;;;;103.40;13.30;;;;;;;3.67;100.00;100033.66;6319062;28;20052;-72
2021/11/21 07:27:09;;;;;;;114.32;13.63;;;;;;;3.77;100.00;100029.88;6320217;28;20090;-72
2021/11/21 07:30:16;;;;;;;116.03;15.27;;;;;;;3.76;100.00;100024.75;6314883;28;20052;-71
2021/11/21 07:33:17;;;;;;;80.40;11.18;;;;;;;3.63;100.00;100032.91;6304694;28;20043;-72
2021/11/21 07:36:17;;;;;;;74.68;12.82;;;;;;;3.68;100.00;100042.22;6297923;28;20048;-71
2021/11/21 07:39:18;;;;;;;95.63;12.48;;;;;;;3.65;100.00;100030.28;6299665;28;20040;-71
2021/11/21 07:42:20;;;;;;;122.35;15.05;;;;;;;3.77;100.00;100024.72;6299542;28;20044;-71
2021/11/21 07:45:21;;;;;;;89.70;16.10;;;;;;;3.71;100.00;100030.06;6299706;28;20041;-71
2021/11/21 07:48:22;;;;;;;163.57;18.60;;;;;;;3.70;100.00;100019.78;6336501;28;20048;-71
2021/11/21 07:51:23;;;;;;;150.68;45.20;;;;;;;3.74;100.00;100018.78;6313656;28;20047;-72
2021/11/21 07:54:24;;;;;;;311.15;79.78;;;;;;;3.91;100.00;100021.66;6316559;28;20047;-72
2021/11/21 07:57:25;;;;;;;888.08;342.92;;;;;;;3.92;100.00;100004.44;6311589;28;20041;-71
2021/11/21 08:00:25;;;;;;;108.82;15.05;;;;;;;3.82;100.00;100011.66;6298142;28;20062;-71
2021/11/21 08:03:26;;;;;;;98.75;13.95;;;;;;;3.96;100.00;100012.00;6265095;28;20079;-72
2021/11/21 08:06:27;;;;;;;92.88;13.00;;;;;;;4.01;100.00;100019.59;6298042;28;20457;-71
2021/11/21 08:09:28;;;;;;;51.80;11.98;;;;;;;4.04;100.00;100014.34;6296948;28;20408;-71
2021/11/21 08:12:29;;;;;;;125.82;14.18;;;;;;;4.11;100.00;100020.13;6322959;28;20036;-72
2021/11/21 08:15:30;;;;;;;66.45;12.00;;;;;;;4.04;100.00;100014.34;6322736;28;20048;-71
2021/11/21 08:18:31;;;;;;;80.20;14.30;;;;;;;4.28;100.00;100022.13;6322805;28;20411;-72
2021/11/21 08:21:31;;;;;;;78.10;13.48;;;;;;;4.26;100.00;100027.31;6322727;28;20036;-71
2021/11/21 08:24:32;;;;;;;39.15;13.02;;;;;;;4.38;100.00;100021.72;6322534;28;20106;-72
2021/11/21 08:27:33;;;;;;;83.72;12.77;;;;;;;4.42;100.00;100028.47;6322526;28;20051;-71
2021/11/21 08:30:38;;;;;;;101.05;16.17;;;;;;;4.57;100.00;100027.09;6322356;28;20036;-72
2021/11/21 08:33:39;;;;;;;80.80;12.10;;;;;;;4.64;100.00;100025.94;6322482;28;20400;-73
2021/11/21 08:36:40;;;;;;;56.50;12.00;;;;;;;4.59;100.00;100021.84;6322212;28;20040;-71
2021/11/21 08:39:40;;;;;;;47.33;11.10;;;;;;;4.46;100.00;100025.78;6322366;28;20105;-71
2021/11/21 08:42:41;;;;;;;85.22;11.90;;;;;;;4.48;100.00;100027.41;6313318;28;20041;-71
2021/11/21 08:45:42;;;;;;;101.18;12.48;;;;;;;4.40;100.00;100026.84;6298249;28;20377;-72
2021/11/21 08:48:43;;;;;;;101.70;14.65;;;;;;;4.36;100.00;100020.09;6307891;28;20044;-71
2021/11/21 08:51:44;;;;;;;105.75;15.98;;;;;;;4.52;100.00;100026.41;6283498;28;20043;-71
2021/11/21 08:54:45;;;;;;;70.85;13.57;;;;;;;4.51;100.00;100019.56;6300317;28;20502;-72
2021/11/21 08:57:46;;;;;;;49.85;12.20;;;;;;;4.56;100.00;100020.22;6303908;28;20048;-71
2021/11/21 09:00:46;;;;;;;57.15;11.48;;;;;;;4.41;100.00;100016.47;6322767;28;20067;-71
2021/11/21 09:03:47;;;;;;;48.28;12.43;;;;;;;4.53;100.00;100015.19;6322151;28;20115;-71
2021/11/21 09:06:48;;;;;;;56.88;14.60;;;;;;;4.73;100.00;99998.06;6288390;28;20052;-72
2021/11/21 09:09:51;;;;;;;56.40;13.10;;;;;;;4.64;100.00;100002.69;6315661;28;20167;-72
2021/11/21 09:12:52;;;;;;;58.38;12.82;;;;;;;4.75;100.00;99999.69;6324134;28;20044;-71
2021/11/21 09:15:53;;;;;;;41.63;12.60;;;;;;;4.92;100.00;100003.38;6322641;28;20059;-71
2021/11/21 09:18:54;;;;;;;45.08;14.27;;;;;;;4.96;100.00;99999.78;6321631;28;20109;-71
2021/11/21 09:21:55;;;;;;;58.75;13.55;;;;;;;4.91;100.00;99999.13;6317816;28;20465;-72
2021/11/21 09:24:55;;;;;;;47.15;13.88;;;;;;;4.78;100.00;99996.16;6304798;28;20079;-71
2021/11/21 09:27:56;;;;;;;65.07;14.57;;;;;;;4.91;100.00;99989.63;6296860;28;20068;-72
2021/11/21 09:30:57;;;;;;;53.33;13.48;;;;;;;4.81;100.00;99993.47;6296238;28;20037;-72
2021/11/21 09:33:58;;;;;;;32.08;14.30;;;;;;;4.81;100.00;99988.28;6305711;28;20052;-72
2021/11/21 09:36:59;;;;;;;74.95;14.30;;;;;;;4.95;100.00;99977.41;6299657;28;20040;-72
2021/11/21 09:40:00;;;;;;;43.38;14.88;;;;;;;4.99;100.00;99969.47;6296772;28;20455;-72
2021/11/21 09:43:01;;;;;;;40.90;15.05;;;;;;;5.03;100.00;99968.44;6262567;28;20048;-71
2021/11/21 09:46:02;;;;;;;40.77;15.23;;;;;;;5.21;100.00;99960.88;6295489;28;20041;-72
2021/11/21 09:49:07;;;;;;;34.70;14.05;;;;;;;5.48;100.00;99958.03;6296531;28;20401;-71
2021/11/21 09:52:14;;;;;;;26.98;14.95;;;;;;;5.45;100.00;99946.91;6295378;28;20051;-72
2021/11/21 09:55:15;;;;;;;29.42;15.43;;;;;;;5.33;100.00;99944.81;6296497;28;20052;-71
2021/11/21 09:58:16;;;;;;;31.67;15.23;;;;;;;5.48;100.00;99950.28;6306531;28;20040;-72
2021/11/21 10:01:39;;;;;;;28.63;13.93;;;;;;;5.52;100.00;99947.50;6321363;28;20059;-73
2021/11/21 10:04:41;;;;;;;28.70;14.85;;;;;;;5.49;100.00;99944.22;6320932;28;20521;-72
2021/11/21 10:07:43;;;;;;;31.95;15.88;;;;;;;5.48;100.00;99925.25;6297245;28;20036;-72
2021/11/21 10:10:47;;;;;;;27.23;14.60;;;;;;;5.56;100.00;99937.84;6297145;28;20468;-71
2021/11/21 10:13:51;;;;;;;25.67;14.20;;;;;;;5.70;100.00;99932.94;6297368;28;20933;-72
2021/11/21 10:16:51;;;;;;;27.17;15.20;;;;;;;5.69;100.00;99925.25;6308315;28;20152;-71
2021/11/21 10:20:06;;;;;;;24.95;14.32;;;;;;;5.81;100.00;99920.38;6286353;28;20476;-71
2021/11/21 10:23:09;;;;;;;25.45;14.55;;;;;;;5.89;100.00;99925.25;6314993;28;20122;-71
2021/11/21 10:26:21;;;;;;;;;;;;;;;5.97;100.00;99925.78;6312514;28;20068;-72
2021/11/21 10:29:27;;;;;;;;;;;;;;;5.99;100.00;99923.97;6318859;28;19928;-72
2021/11/21 10:32:34;;;;;;;23.98;13.18;;;;;;;6.04;100.00;99919.41;6320061;28;20398;-72
2021/11/21 10:35:35;;;;;;;24.23;14.00;;;;;;;6.08;100.00;99912.34;6302452;28;20480;-71
2021/11/21 10:38:39;;;;;;;24.42;14.13;;;;;;;6.17;100.00;99911.06;6303065;28;20038;-72
2021/11/21 10:41:42;;;;;;;21.65;12.90;;;;;;;6.02;100.00;99904.84;6315160;28;20048;-73
2021/11/21 10:44:50;;;;;;;24.33;14.57;;;;;;;6.12;100.00;99897.50;6297534;28;20416;-72
2021/11/21 10:47:53;;;;;;;30.50;17.60;;;;;;;6.07;100.00;99899.44;6312823;28;20039;-73
2021/11/21 10:50:54;;;;;;;27.63;15.07;;;;;;;6.23;100.00;99903.03;6318338;28;20044;-72
2021/11/21 10:53:55;;;;;;;25.25;13.90;;;;;;;6.12;100.00;99900.94;6320558;28;20809;-72
2021/11/21 10:56:59;;;;;;;29.70;14.32;;;;;;;6.25;100.00;99903.81;6317076;28;20041;-72
2021/11/21 11:00:06;;;;;;;25.58;14.05;;;;;;;6.37;100.00;99897.22;6308919;28;20043;-72
2021/11/21 11:03:18;;;;;;;25.40;14.85;;;;;;;6.41;100.00;99885.81;6310393;28;20548;-72
2021/11/21 11:06:29;;;;;;;30.55;16.33;;;;;;;6.42;100.00;99892.66;6319161;28;20068;-72
2021/11/21 11:09:30;;;;;;;26.85;15.45;;;;;;;6.39;100.00;99888.47;6323132;28;20044;-72
2021/11/21 11:12:30;;;;;;;27.50;15.25;;;;;;;6.36;100.00;99877.38;6323839;28;20044;-72
2021/11/21 11:15:34;;;;;;;27.58;16.00;;;;;;;6.38;100.00;99873.84;6324937;28;20112;-72
2021/11/21 11:18:35;;;;;;;28.88;16.45;;;;;;;6.43;100.00;99871.03;6323009;28;20048;-72
2021/11/21 11:21:36;;;;;;;27.88;17.20;;;;;;;6.57;100.00;99858.25;6324678;28;20044;-71
2021/11/21 11:24:43;;;;;;;31.85;17.83;;;;;;;6.64;100.00;99851.00;6323249;28;20052;-73
2021/11/21 11:28:01;;;;;;;30.70;15.57;;;;;;;6.68;100.00;99856.91;6322832;28;20051;-71
2021/11/21 11:31:21;;;;;;;28.17;16.17;;;;;;;6.80;100.00;99854.56;6324114;28;20044;-72
2021/11/21 11:34:35;;;;;;;28.30;15.25;;;;;;;6.77;100.00;99849.50;6315621;28;20047;-72
2021/11/21 11:37:48;;;;;;;27.15;15.63;;;;;;;6.79;100.00;99839.88;6323862;28;20048;-73
2021/11/21 11:40:52;;;;;;;27.02;15.32;;;;;;;6.78;100.00;99840.00;6324286;28;20036;-72
2021/11/21 11:43:55;;;;;;;24.80;15.05;;;;;;;6.76;100.00;99834.03;6324765;28;20441;-73
2021/11/21 11:46:55;;;;;;;33.55;19.45;;;;;;;6.83;100.00;99835.41;6325187;28;20448;-72
2021/11/21 11:49:57;;;;;;;44.95;21.58;;;;;;;6.98;100.00;99821.69;6323405;28;20046;-73
2021/11/21 11:52:58;;;;;;;34.03;18.90;;;;;;;6.95;100.00;99829.59;6321525;28;20033;-72
2021/11/21 11:56:10;;;;;;;25.45;16.33;;;;;;;6.89;100.00;99816.13;6290154;28;20055;-72
2021/11/21 11:59:23;;;;;;;26.85;16.65;;;;;;;6.97;100.00;99811.38;6321791;28;20125;-72
2021/11/21 12:02:32;;;;;;;25.00;15.77;;;;;;;7.09;100.00;99809.94;6313698;28;20093;-72
2021/11/21 12:05:35;;;;;;;28.45;17.05;;;;;;;7.16;100.00;99801.75;6307953;28;20049;-72
2021/11/21 12:08:42;;;;;;;27.67;16.60;;;;;;;7.24;100.00;99803.94;6323014;28;20055;-73
2021/11/21 12:11:58;;;;;;;25.20;16.50;;;;;;;7.26;100.00;99809.91;6323901;28;20068;-72
2021/11/21 12:14:59;;;;;;;26.15;15.50;;;;;;;7.30;100.00;99806.22;6323749;28;20475;-71
2021/11/21 12:18:04;;;;;;;30.50;16.35;;;;;;;7.29;100.00;99798.53;6312798;28;20037;-72
2021/11/21 12:21:05;;;;;;;22.75;15.25;;;;;;;7.39;100.00;99802.31;6302571;28;20040;-72
2021/11/21 12:24:16;;;;;;;24.35;15.65;;;;;;;7.43;100.00;99802.09;6324632;28;20052;-72
2021/11/21 12:27:25;;;;;;;26.02;15.77;;;;;;;7.22;100.00;99793.66;6298151;28;20499;-71
2021/11/21 12:30:32;;;;;;;22.83;16.38;;;;;;;7.26;100.00;99794.34;6298130;28;20143;-72
2021/11/21 12:33:33;;;;;;;26.17;16.10;;;;;;;7.23;100.00;99791.91;6315077;28;20114;-71
2021/11/21 12:37:11;;;;;;;23.58;15.45;;;;;;;7.31;100.00;99788.91;6317883;28;20483;-72
2021/11/21 12:40:39;;;;;;;33.97;21.75;;;;;;;7.30;100.00;99779.44;6322982;28;20101;-72
2021/11/21 12:43:40;;;;;;;29.45;20.58;;;;;;;7.40;100.00;99778.06;6316321;28;20079;-72
2021/11/21 12:46:41;;;;;;;23.73;15.88;;;;;;;7.44;100.00;99777.81;6323034;28;20040;-72
2021/11/21 12:49:43;;;;;;;24.42;15.85;;;;;;;7.45;100.00;99773.44;6323165;28;20108;-73
2021/11/21 12:53:05;;;;;;;23.25;15.30;;;;;;;7.52;100.00;99779.19;6322797;28;20052;-73
2021/11/21 12:56:12;;;;;;;24.05;15.50;;;;;;;7.46;100.00;99773.38;6318543;28;20075;-73
2021/11/21 12:59:13;;;;;;;25.45;15.25;;;;;;;7.47;100.00;99772.47;6321386;28;20055;-72
2021/11/21 13:02:15;;;;;;;29.23;17.48;;;;;;;7.54;100.00;99765.19;6321712;28;20048;-71
2021/11/21 13:05:16;;;;;;;75.25;30.77;;;;;;;7.54;100.00;99764.34;6323306;28;20591;-72
2021/11/21 13:08:22;;;;;;;58.17;27.15;;;;;;;7.87;100.00;99759.94;6288728;28;20052;-73
2021/11/21 13:11:25;;;;;;;36.97;19.33;;;;;;;7.60;100.00;99757.06;6322761;28;20059;-71
2021/11/21 13:14:26;;;;;;;30.58;18.60;;;;;;;7.76;100.00;99759.69;6323073;28;20115;-72
2021/11/21 13:17:27;;;;;;;36.97;20.95;;;;;;;7.93;100.00;99758.78;6314807;28;20079;-72
2021/11/21 13:20:28;;;;;;;40.03;22.07;;;;;;;8.05;100.00;99752.03;6296808;28;20044;-71
2021/11/21 13:23:30;;;;;;;31.30;18.67;;;;;;;8.01;100.00;99745.34;6295618;28;20098;-73
2021/11/21 13:26:30;;;;;;;33.38;17.70;;;;;;;7.98;100.00;99751.53;6305015;28;20059;-73
2021/11/21 13:29:32;;;;;;;29.02;17.40;;;;;;;7.85;100.00;99745.38;6311508;28;20040;-73
2021/11/21 13:32:32;;;;;;;25.45;17.58;;;;;;;7.69;100.00;99744.50;6312463;28;20044;-72
2021/11/21 13:35:33;;;;;;;23.67;16.75;;;;;;;7.57;100.00;99738.22;6293089;28;20463;-72
2021/11/21 13:38:34;;;;;;;28.70;18.38;;;;;;;7.64;100.00;99739.56;6303753;28;20101;-72
2021/11/21 13:41:36;;;;;;;25.15;17.23;;;;;;;7.63;100.00;99738.72;6322589;28;20043;-73
2021/11/21 13:44:44;;;;;;;28.13;19.38;;;;;;;7.63;100.00;99743.91;6321690;28;20414;-72
2021/11/21 13:47:45;;;;;;;31.20;19.38;;;;;;;7.61;100.00;99739.72;6322524;28;20044;-72
2021/11/21 13:50:46;;;;;;;27.88;17.08;;;;;;;7.60;100.00;99731.09;6317345;28;20043;-73
2021/11/21 13:53:48;;;;;;;56.03;29.27;;;;;;;7.62;100.00;99734.47;6284791;28;20067;-72